Angelo Coast Range Reserve, California Weather observations

Data are for 10 minute period ending at time listed.
 Day   Time   Solar   Ave.   Ave.  Ave.  Vector  Max.   Baro.   Total    
  of    of     Rad.   Air    Rel.  Wind   Wind   Wind  Press.  Precip.   
Year   Day            Temp.  Hum.  Speed  Dir.   Gust                    
2016   (PST)  Kw/m2    F      %     mph   deg.    mph    mb.     in.     
-------------------------------------------------------------------------
 343   21:40   0.00   46.5   100    0.0     0     0.0   969.9    0.00 
 343   21:50   0.00   46.4   100    0.1     2     1.0   969.9    0.01 
 343   22:00   0.00   46.4   100    0.0     0     0.0   970.0    0.00 
 343   22:10   0.00   46.4   100    0.0     0     0.0   970.2    0.00 
 343   22:20   0.00   46.4   100    0.3   171     1.5   970.2    0.00 
 343   22:30   0.00   46.3   100    0.1   174     1.2   970.3    0.00 
 343   22:40   0.00   46.3   100    0.1   174     1.2   970.4    0.00 
 343   22:50   0.00   46.3   100    0.0     0     0.0   970.6    0.00 
 343   23:00   0.00   46.5   100    0.0     0     0.0   970.6    0.00 
 343   23:10   0.00   46.5   100    0.0     0     0.0   970.5    0.00 
 343   23:20   0.00   46.5   100    0.0     0     0.0   970.6    0.00 
 343   23:30   0.00   46.3   100    0.0     0     0.0   970.7    0.01 
 343   23:40   0.00   46.4   100    0.1   174     0.7   970.8    0.00 
 343   23:50   0.00   46.4   100    0.0     0     0.0   970.7    0.00 
 344    0:00   0.00   46.5   100    0.0     0     0.0   970.6    0.01 
 344    0:10   0.00   46.5   100    0.0     0     0.0   970.6    0.00 
 344    0:20   0.00   46.4   100    0.0     0     0.0   970.6    0.00 
 344    0:30   0.00   46.4   100    0.0     0     0.0   970.5    0.00 
 344    0:40   0.00   46.3   100    0.0   171     0.5   970.5    0.01 
 344    0:50   0.00   46.4   100    0.0     0     0.0   970.5    0.00 
 344    1:00   0.00   46.5   100    0.0     0     0.0   970.3    0.00 
 344    1:10   0.00   46.5   100    0.0     0     0.0   970.3    0.01 
 344    1:20   0.00   46.3   100    0.5   186     2.1   970.5    0.00 
 344    1:30   0.00   46.5   100    0.0     0     0.0   970.5    0.01 
 344    1:40   0.00   46.6   100    0.0     0     0.0   970.5    0.00 
 344    1:50   0.00   46.6   100    0.0     0     0.0   970.5    0.01 
 344    2:00   0.00   46.5   100    0.0     0     0.0   970.6    0.00 
 344    2:10   0.00   46.6   100    0.0     0     0.0   970.7    0.00 
 344    2:20   0.00   46.7   100    0.0     0     0.0   970.8    0.00 
 344    2:30   0.00   46.5   100    0.5   172     1.2   970.8    0.01 
 344    2:40   0.00   46.5   100    0.0     0     0.0   970.9    0.00 
 344    2:50   0.00   46.6   100    0.0     0     0.0   970.9    0.01 
 344    3:00   0.00   46.6   100    0.0     0     0.0   970.8    0.01 
 344    3:10   0.00   46.6   100    0.0     0     0.0   970.8    0.00 
 344    3:20   0.00   46.5   100    0.2   328     0.9   970.7    0.01 
 344    3:30   0.00   46.6   100    0.2   183     1.2   970.7    0.02 
 344    3:40   0.00   46.6   100    0.0   183     0.4   970.6    0.00 
 344    3:50   0.00   46.6   100    0.0     0     0.0   970.4    0.00 
 344    4:00   0.00   46.5   100    0.0     0     0.0   970.3    0.01 
 344    4:10   0.00   46.6   100    0.0     0     0.0   970.3    0.01 
 344    4:20   0.00   46.5   100    0.0     0     0.0   970.4    0.00 
 344    4:30   0.00   46.7   100    0.0     0     0.0   970.4    0.01 
 344    4:40   0.00   46.6   100    0.0     0     0.0   970.3    0.00 
 344    4:50   0.00   46.6   100    0.0     0     0.0   970.2    0.01 
 344    5:00   0.00   46.6   100    0.0     0     0.0   970.2    0.01 
 344    5:10   0.00   46.7   100    0.3   170     0.9   970.5    0.01 
 344    5:20   0.00   46.6   100    0.1   170     0.6   970.4    0.00 
 344    5:30   0.00   46.7   100    0.0     0     0.0   970.3    0.00 
 344    5:40   0.00   46.6   100    0.0     0     0.0   970.4    0.01 
 344    5:50   0.00   46.6   100    0.0     0     0.0   970.5    0.01 
 344    6:00   0.00   46.6   100    0.0     0     0.0   970.6    0.00 
 344    6:10   0.00   46.7   100    0.0     0     0.0   970.7    0.00 
 344    6:20   0.00   46.7   100    0.0     0     0.0   970.8    0.01 
 344    6:30   0.00   46.8   100    0.0     0     0.0   970.7    0.01 
 344    6:40   0.00   46.7   100    0.2   178     1.1   970.9    0.00 
 344    6:50   0.00   46.7   100    0.0     0     0.0   971.0    0.01 
 344    7:00   0.00   46.8   100    0.0     0     0.0   971.0    0.00 
 344    7:10   0.00   46.8   100    0.0     0     0.0   971.1    0.00 
 344    7:20   0.00   46.7   100    0.2   178     0.8   971.1    0.00 
 344    7:30   0.00   46.7   100    0.0     0     0.0   971.2    0.00 
 344    7:40   0.00   46.7   100    0.2   178     1.2   971.2    0.00 
 344    7:50   0.01   46.6   100    0.3   178     0.9   971.3    0.00 
 344    8:00   0.01   46.7   100    0.0     0     0.0   971.5    0.00 
 344    8:10   0.02   46.8   100    0.0     0     0.0   971.6    0.00 
 344    8:20   0.03   46.9   100    0.0     0     0.0   971.6    0.00 
 344    8:30   0.05   47.2   100    0.0     0     0.0   971.7    0.00 
 344    8:40   0.05   47.5   100    0.0     0     0.0   971.7    0.01 
 344    8:50   0.04   47.8   100    0.0   178     0.9   971.7    0.01 
 344    9:00   0.05   47.8    99    0.7   178     1.6   971.8    0.01 
 344    9:10   0.06   47.9   100    0.1    98     1.0   972.0    0.00 
 344    9:20   0.06   48.3    99    0.5   179     2.5   972.0    0.00 
 344    9:30   0.08   48.4   100    0.9   171     2.3   971.9    0.00 
 344    9:40   0.07   48.7    99    0.0     0     0.0   971.9    0.00 
 344    9:50   0.12   49.7   100    0.0    78     0.7   971.8    0.00 
 344   10:00   0.14   50.5    99    0.1   125     1.0   971.8    0.00 
 344   10:10   0.15   51.1    99    1.3   145     3.7   971.8    0.01 
 344   10:20   0.17   51.9    99    1.8   119     4.3   971.7    0.00 
 344   10:30   0.14   52.4    98    3.1   131     6.8   971.8    0.00 
 344   10:40   0.19   52.9    97    2.5   148     6.6   971.7    0.00 
 344   10:50   0.12   53.0    96    3.0   134     5.8   971.7    0.00 
 344   11:00   0.18   53.1    95    4.7   134     8.5   971.6    0.00 
 344   11:10   0.13   53.1    94    3.2   131     8.8   971.4    0.01 
 344   11:20   0.13   53.1    95    3.5   139     6.4   971.3    0.00 
 344   11:30   0.15   53.2    95    2.0   122     4.9   971.4    0.00 
 344   11:40   0.15   53.3    96    3.0   137     6.8   971.2    0.00 
 344   11:50   0.14   53.5    95    2.4   143     6.1   971.0    0.00 
 344   12:00   0.10   53.5    93    3.6   143     8.8   971.1    0.00 
 344   12:10   0.15   53.2    93    5.1   154     8.6   970.8    0.00 
 344   12:20   0.14   53.4    93    3.3   136     6.8   970.6    0.00 
 344   12:30   0.12   53.2    93    3.7   127     7.5   970.9    0.00 
 344   12:40   0.11   53.0    93    4.8   132     9.6   970.9    0.00 
 344   12:50   0.10   52.9    94    4.1   143     7.3   970.8    0.00 
 344   13:00   0.15   52.8    95    4.4   137     8.0   970.7    0.00 
 344   13:10   0.13   52.9    94    5.7   135     9.5   970.4    0.00 
 344   13:20   0.09   52.6    95    5.2   126     9.3   970.4    0.00 
 344   13:30   0.10   52.9    94    4.1   140     7.7   970.2    0.00 
 344   13:40   0.11   52.9    95    4.0   125     7.8   970.2    0.01 
 344   13:50   0.09   53.0    95    2.2   155     5.4   969.9    0.01 
 344   14:00   0.08   52.9    95    2.3   136     5.0   969.8    0.01 
 344   14:10   0.11   53.0    94    4.6   151     9.6   969.8    0.00 
 344   14:20   0.10   53.0    94    3.4   143     6.9   969.8    0.00 
 344   14:30   0.08   52.9    94    3.5   144     7.8   969.9    0.00 
 344   14:40   0.05   52.7    94    3.3   141     6.6   969.7    0.00 
 344   14:50   0.06   52.5    95    3.0   141     8.1   969.7    0.00 
 344   15:00   0.05   52.4    95    1.7   107     4.3   969.6    0.00 
 344   15:10   0.05   52.3    96    1.9   128     5.0   969.5    0.01 
 344   15:20   0.04   52.3    96    2.5   126     8.5   969.5    0.01 
 344   15:30   0.03   52.1    96    4.0   143     8.8   969.5    0.01 
 344   15:40   0.03   52.2    95    2.9   134     6.0   969.5    0.00 
 344   15:50   0.03   52.0    96    1.2   110     3.9   969.4    0.00 
 344   16:00   0.01   51.9    97    0.8    86     3.1   969.2    0.00 
 344   16:10   0.01   51.6    98    0.7    49     2.0   969.2    0.00 
 344   16:20   0.01   51.5    98    1.8   140     7.6   969.0    0.00 
 344   16:30   0.00   51.4    98    1.1   135     5.8   969.0    0.01 
 344   16:40   0.00   51.2    98    0.3   170     2.1   968.9    0.01 
 344   16:50   0.00   51.2    98    1.7    97     4.8   968.8    0.01 
 344   17:00   0.00   51.2    98    3.0   125     8.1   968.6    0.01 
 344   17:10   0.00   51.1    98    2.4   137     9.1   968.6    0.00 
 344   17:20   0.00   51.2    97    4.4   132     8.8   968.9    0.00 
 344   17:30   0.00   51.2    96    2.9   120     5.8   968.8    0.00 
 344   17:40   0.00   50.9    97    1.6   104     3.2   968.8    0.00 
 344   17:50   0.00   50.7    98    2.7   158     8.1   968.6    0.01 
 344   18:00   0.00   51.0    96    1.9   123     5.8   968.5    0.00 
 344   18:10   0.00   50.6    98    1.2   101     4.2   968.5    0.00 
 344   18:20   0.00   50.5    98    1.5    65     6.5   968.3    0.01 
 344   18:30   0.00   50.4    99    1.0    53     5.2   967.9    0.00 
 344   18:40   0.00   50.4    99    0.0   332     0.8   967.7    0.00 
 344   18:50   0.00   50.2    99    0.8    29     2.9   967.2    0.00 
 344   19:00   0.00   50.1    99    0.9     0     2.4   967.1    0.00 
 344   19:10   0.00   50.1    99    1.7     9     3.4   967.3    0.01 
 344   19:20   0.00   50.1    99    1.7     5     3.1   967.5    0.03 
 344   19:30   0.00   50.1    99    0.3   336     1.3   967.8    0.02 
 344   19:40   0.00   50.1    99    0.4     4     1.8   967.7    0.05 
 344   19:50   0.00   50.1    99    0.3    16     1.5   967.4    0.04 
 344   20:00   0.00   49.9    99    1.3   341     2.4   967.6    0.01 
 344   20:10   0.00   50.1   100    1.1   141     2.3   967.7    0.05 
 344   20:20   0.00   49.8   100    1.7   169     3.1   967.2    0.05 
 344   20:30   0.00   49.7   100    2.3     7     4.1   966.7    0.01 
 344   20:40   0.00   49.9   100    1.3     1     3.7   966.9    0.01 
 344   20:50   0.00   50.2   100    0.3    94     1.4   967.0    0.05 
 344   21:00   0.00   50.1   100    0.9   182     3.3   966.7    0.07 
 344   21:10   0.00   50.0   100    0.8    92     3.5   966.5    0.08 
 344   21:20   0.00   50.1   100    1.3    94     3.1   966.2    0.02 
 344   21:30   0.00   50.1   100    1.2     7     3.7   966.1    0.03 

Return to Angelo Coast Range Reserve graphs page.


Western Regional Climate Center,wrcc@dri.edu